Vulcan, Canada
Current Conditions -  °F | °C
As of 1:00 PM on Wednesday 28 Jan 2015 (Local Time) from CYQL Reporting Station
Few Clouds Few Clouds  
Wind Chill:   Ceiling: Unl
Heat Index:   Visibility: 10mi
Dew Point:   Wind: 5mph
Humidity: 70%   Direction: 10°N
Pressure: 30.27"   Gusts: NA
Location:  50.4°N, 113.25°W
Report Text: CYQL 282000Z 01004KT 10SM FEW060 FEW240 05/M00 A3027 RMK SC1CI1 SLP277
Loading
Personal Weather Stations






























Interactive Weather Map New forecast layout! Learn more

10-Day Weather Forecast

Advertisements
Track Severe Weather on mobile